Main page
METAR-TAF:

METAR-TAF

Airports :

Dhahran, Saudi Arabia

King Abdulaziz Air Base

latitude: 26-16N, longitude: 050-09E, elevation: 26 m

Current weather observation

The report was made 1 hour and 2 minutes ago, at 09:00 UTC
Wind 3 kt from variable directions
Temperature 37°C
Humidity 14%
Pressure 1008 hPa
Visibility: 8000 m
Clear sky

METAR: OEDR 220900Z VRB03KT 8000 SKC 37/05 Q1008 NOSIG

Time: 13:02 (10:02 UTC)

Forecast

The report was made 7 hours and 2 minutes ago, at 03:00 UTC
Forecast valid from 22 at 06 UTC to 23 at 12 UTC
Wind 3 kt from variable directions
Visibility: 8000 m
Becoming
from 22 at 08 UTC to 22 at 10 UTC
Wind 10 kt from the Northeast
Becoming
from 22 at 20 UTC to 22 at 22 UTC
Wind 8 kt from the North/Northwest

TAF: OEDR 220300Z 2206/2312 VRB03KT 8000 NSC BECMG 2208/2210 04010KT BECMG 2220/2222 34008KT

Weather observations and forecasts of more than 4000 airports (METAR and TAF reports).

The available stations are represented by yellow and red dots on the map.

Hover mouse over dot to see the name of the station.

Then click to see weather observations and forecasts.

To change the map : click on the green buttons with a black cross to zoom in, on the green button with a dash to zoom out, or on the green arrows for adjacent maps.


METAR-TAF: